createdAt,value
2022-09-20T00:00:42.873Z,26.80
2022-09-20T00:03:19.667Z,26.70
2022-09-20T00:05:51.141Z,26.60
2022-09-20T00:08:22.181Z,26.40
2022-09-20T00:10:55.108Z,26.10
2022-09-20T00:13:26.574Z,25.80
2022-09-20T00:15:57.657Z,25.40
2022-09-20T00:18:32.748Z,25.20
2022-09-20T00:21:03.792Z,25.00
2022-09-20T00:23:35.563Z,24.80
2022-09-20T00:26:08.017Z,24.70
2022-09-20T00:28:39.126Z,24.60
2022-09-20T00:31:11.311Z,24.50
2022-09-20T00:34:00.644Z,24.50
2022-09-20T00:36:32.170Z,24.50
2022-09-20T00:39:06.183Z,24.40
2022-09-20T00:41:37.539Z,24.40
2022-09-20T00:44:41.220Z,24.30
2022-09-20T00:47:20.945Z,24.10
2022-09-20T00:49:59.358Z,24.00
2022-09-20T00:52:32.334Z,23.80
2022-09-20T00:55:05.252Z,23.70
2022-09-20T00:57:37.752Z,23.60
2022-09-20T01:00:14.146Z,23.50
2022-09-20T01:02:51.580Z,23.30
2022-09-20T01:05:25.855Z,23.20
2022-09-20T01:07:58.524Z,23.10
2022-09-20T01:10:29.667Z,22.90
2022-09-20T01:13:01.372Z,22.90
2022-09-20T01:15:37.767Z,22.80
2022-09-20T01:18:11.321Z,22.70
2022-09-20T01:20:47.528Z,22.70
2022-09-20T01:23:42.241Z,22.60
2022-09-20T01:26:41.048Z,22.50
2022-09-20T01:29:26.098Z,22.40
2022-09-20T01:32:01.409Z,22.30
2022-09-20T01:34:36.212Z,22.20
2022-09-20T01:37:15.881Z,22.10
2022-09-20T01:39:57.233Z,22.00
2022-09-20T01:42:33.973Z,22.00
2022-09-20T01:45:14.777Z,21.70
2022-09-20T01:47:54.776Z,21.60
2022-09-20T01:50:37.649Z,21.50
2022-09-20T01:53:46.293Z,21.40
2022-09-20T01:57:01.240Z,21.20
2022-09-20T02:00:04.048Z,21.00
2022-09-20T02:02:55.098Z,20.90
2022-09-20T02:05:44.668Z,20.70
2022-09-20T02:08:48.979Z,20.50
2022-09-20T02:11:22.315Z,20.40
2022-09-20T02:14:09.799Z,20.30
2022-09-20T02:16:51.560Z,20.10
2022-09-20T02:19:43.443Z,19.90
2022-09-20T02:22:42.588Z,19.70
2022-09-20T02:25:34.391Z,19.70
2022-09-20T02:28:17.481Z,19.50
2022-09-20T02:30:57.453Z,19.40
2022-09-20T02:33:51.072Z,19.20
2022-09-20T02:36:38.331Z,19.10
2022-09-20T02:39:17.814Z,18.90
2022-09-20T02:42:02.881Z,18.80
2022-09-20T02:44:50.573Z,18.70
2022-09-20T02:47:29.745Z,18.50
2022-09-20T02:50:21.802Z,18.40
2022-09-20T02:53:16.731Z,18.30
2022-09-20T02:56:01.250Z,18.20
2022-09-20T02:58:43.173Z,18.10
2022-09-20T03:01:28.349Z,18.00
2022-09-20T03:04:10.733Z,17.90
2022-09-20T03:06:55.001Z,17.60
2022-09-20T03:09:37.590Z,17.60
2022-09-20T03:12:25.831Z,17.40
2022-09-20T03:15:11.233Z,17.30
2022-09-20T03:17:53.442Z,17.30
2022-09-20T03:20:37.552Z,17.20
2022-09-20T03:23:20.588Z,17.10
2022-09-20T03:26:02.504Z,17.00
2022-09-20T03:28:59.106Z,17.00
2022-09-20T03:31:48.078Z,16.90
2022-09-20T03:34:34.361Z,16.90
2022-09-20T03:37:25.757Z,16.80
2022-09-20T03:40:26.823Z,16.80
2022-09-20T03:43:08.947Z,16.70
2022-09-20T03:45:54.757Z,16.60
2022-09-20T03:48:59.134Z,16.60
2022-09-20T03:51:35.792Z,16.50
2022-09-20T03:54:59.905Z,16.40
2022-09-20T03:57:43.373Z,16.40
2022-09-20T04:00:28.630Z,16.40
2022-09-20T04:03:23.508Z,16.30
2022-09-20T04:06:13.463Z,16.30
2022-09-20T04:09:04.588Z,16.30
2022-09-20T04:11:44.147Z,16.20
2022-09-20T04:14:21.347Z,16.20
2022-09-20T04:17:02.184Z,16.20
2022-09-20T04:19:42.890Z,16.20
2022-09-20T04:22:14.244Z,16.20
2022-09-20T04:24:54.601Z,16.10
2022-09-20T04:27:31.729Z,16.10
2022-09-20T04:30:10.005Z,16.10
2022-09-20T04:32:52.356Z,16.10
2022-09-20T04:35:55.373Z,16.00
2022-09-20T04:38:28.194Z,16.00
2022-09-20T04:41:24.436Z,15.90
2022-09-20T04:44:32.996Z,15.90
2022-09-20T04:47:56.964Z,15.90
2022-09-20T04:51:02.398Z,15.80
2022-09-20T04:54:15.549Z,15.70
2022-09-20T04:57:08.016Z,15.60
2022-09-20T04:59:57.694Z,15.50
2022-09-20T05:03:15.332Z,15.40
2022-09-20T05:06:06.757Z,15.40
2022-09-20T05:09:11.193Z,15.40
2022-09-20T05:12:04.683Z,15.30
2022-09-20T05:14:58.926Z,15.30
2022-09-20T05:17:55.837Z,15.20
2022-09-20T05:20:49.813Z,15.20
2022-09-20T05:23:49.637Z,15.20
2022-09-20T05:26:37.587Z,15.20
2022-09-20T05:29:23.200Z,15.20
2022-09-20T05:31:59.771Z,15.20
2022-09-20T05:34:43.421Z,15.10
2022-09-20T05:37:26.135Z,15.00
2022-09-20T05:40:02.741Z,15.00
2022-09-20T05:42:45.237Z,15.00
2022-09-20T05:45:48.104Z,14.90
2022-09-20T05:48:27.795Z,14.90
2022-09-20T05:51:04.100Z,14.80
2022-09-20T05:54:07.517Z,14.70
2022-09-20T05:56:48.752Z,14.70
2022-09-20T05:59:34.557Z,14.60
2022-09-20T06:02:28.862Z,14.50
2022-09-20T06:05:07.741Z,14.50
2022-09-20T06:08:01.820Z,14.50
2022-09-20T06:10:54.664Z,14.50
2022-09-20T06:13:53.989Z,14.40
2022-09-20T06:16:35.028Z,14.40
2022-09-20T06:19:16.456Z,14.40
2022-09-20T06:21:55.166Z,14.30
2022-09-20T06:24:39.310Z,14.30
2022-09-20T06:27:15.580Z,14.20
2022-09-20T06:29:52.243Z,14.20
2022-09-20T06:32:23.563Z,14.10
2022-09-20T06:34:58.000Z,14.10
2022-09-20T06:38:03.470Z,14.10
2022-09-20T06:40:57.250Z,14.00
2022-09-20T06:43:28.790Z,14.00
2022-09-20T06:45:59.882Z,14.00
2022-09-20T06:48:32.930Z,14.00
2022-09-20T06:51:06.576Z,13.90
2022-09-20T06:53:41.551Z,13.90
2022-09-20T06:56:19.328Z,13.90
2022-09-20T06:58:50.405Z,13.80
2022-09-20T07:01:29.787Z,13.80
2022-09-20T07:04:02.272Z,13.80
2022-09-20T07:06:35.289Z,13.70
2022-09-20T07:09:06.465Z,13.70
2022-09-20T07:11:37.326Z,13.70
2022-09-20T07:14:08.765Z,13.70
2022-09-20T07:16:58.409Z,13.60
2022-09-20T07:19:29.650Z,13.60
2022-09-20T07:22:01.109Z,13.60
2022-09-20T07:24:33.208Z,13.60
2022-09-20T07:27:05.961Z,13.50
2022-09-20T07:29:38.036Z,13.50
2022-09-20T07:32:18.971Z,13.50
2022-09-20T07:34:50.141Z,13.40
2022-09-20T07:37:21.463Z,13.40
2022-09-20T07:39:52.455Z,13.30
2022-09-20T07:42:23.347Z,13.30
2022-09-20T07:44:54.944Z,13.20
2022-09-20T07:47:28.632Z,13.20
2022-09-20T07:50:00.123Z,13.20
2022-09-20T07:52:31.611Z,13.20
2022-09-20T07:55:02.646Z,13.10
2022-09-20T07:57:38.787Z,13.10
2022-09-20T08:00:12.335Z,13.10
2022-09-20T08:02:46.826Z,13.10
2022-09-20T08:05:18.332Z,13.00
2022-09-20T08:07:49.374Z,13.00
2022-09-20T08:10:21.596Z,13.00
2022-09-20T08:15:44.143Z,12.80
2022-09-20T08:18:18.456Z,12.80
2022-09-20T08:20:49.816Z,12.80
2022-09-20T08:23:23.815Z,12.80
2022-09-20T08:25:56.164Z,12.80
2022-09-20T08:28:27.212Z,12.70
2022-09-20T08:31:03.803Z,12.70
2022-09-20T08:33:38.664Z,12.60
2022-09-20T08:36:11.159Z,12.60
2022-09-20T08:41:37.322Z,12.60
2022-09-20T08:44:14.507Z,12.50
2022-09-20T08:46:49.691Z,12.50
2022-09-20T08:49:29.952Z,12.50
2022-09-20T08:52:04.349Z,12.40
2022-09-20T08:54:36.258Z,12.40
2022-09-20T08:57:11.997Z,12.40
2022-09-20T08:59:43.098Z,12.40
2022-09-20T09:02:19.679Z,12.40
2022-09-20T09:04:57.577Z,12.40
2022-09-20T09:07:30.496Z,12.30
2022-09-20T09:10:02.651Z,12.30
2022-09-20T09:12:37.005Z,12.30
2022-09-20T09:15:25.765Z,12.20
2022-09-20T09:17:58.056Z,12.20
2022-09-20T09:20:31.766Z,12.20
2022-09-20T09:23:04.958Z,12.20
2022-09-20T09:25:40.362Z,12.20
2022-09-20T09:28:18.689Z,12.10
2022-09-20T09:30:51.033Z,12.10
2022-09-20T09:33:30.788Z,12.00
2022-09-20T09:36:10.529Z,12.00
2022-09-20T09:38:46.401Z,12.00
2022-09-20T09:41:28.953Z,12.00
2022-09-20T09:44:05.942Z,12.00
2022-09-20T09:46:39.288Z,11.90
2022-09-20T09:49:16.688Z,11.90
2022-09-20T09:52:08.827Z,11.90
2022-09-20T09:54:42.504Z,11.90
2022-09-20T09:57:44.943Z,11.90
2022-09-20T10:00:22.019Z,11.90
2022-09-20T10:03:20.061Z,11.80
2022-09-20T10:06:02.735Z,11.80
2022-09-20T10:08:47.656Z,11.80
2022-09-20T10:11:32.777Z,11.80
2022-09-20T10:14:15.674Z,11.80
2022-09-20T10:17:04.518Z,11.80
2022-09-20T10:19:53.412Z,11.70
2022-09-20T10:22:38.080Z,11.70
2022-09-20T10:25:27.152Z,11.70
2022-09-20T10:28:12.325Z,11.70
2022-09-20T10:30:59.351Z,11.70
2022-09-20T10:33:39.138Z,11.70
2022-09-20T10:36:22.143Z,11.60
2022-09-20T10:39:00.105Z,11.60
2022-09-20T10:42:01.727Z,11.60
2022-09-20T10:44:55.968Z,11.60
2022-09-20T10:47:37.759Z,11.60
2022-09-20T10:50:22.174Z,11.50
2022-09-20T10:53:32.611Z,11.50
2022-09-20T10:56:13.189Z,11.50
2022-09-20T10:59:07.826Z,11.40
2022-09-20T11:01:43.310Z,11.40
2022-09-20T11:04:41.842Z,11.30
2022-09-20T11:07:20.258Z,11.30
2022-09-20T11:09:55.616Z,11.20
2022-09-20T11:12:33.295Z,11.20
2022-09-20T11:15:11.530Z,11.20
2022-09-20T11:17:46.971Z,11.10
2022-09-20T11:20:24.192Z,11.10
2022-09-20T11:23:02.130Z,11.00
2022-09-20T11:25:39.399Z,11.00
2022-09-20T11:28:20.311Z,11.00
2022-09-20T11:31:07.971Z,11.00
2022-09-20T11:33:43.258Z,10.90
2022-09-20T11:36:20.020Z,10.90
2022-09-20T11:38:55.181Z,10.90
2022-09-20T11:41:29.984Z,10.80
2022-09-20T11:44:07.939Z,10.70
2022-09-20T11:46:49.218Z,10.80
2022-09-20T11:49:25.232Z,10.80
2022-09-20T11:52:28.057Z,10.70
2022-09-20T11:55:29.124Z,10.70
2022-09-20T11:58:05.984Z,10.70
2022-09-20T12:00:42.420Z,10.70
2022-09-20T12:03:34.057Z,10.70
2022-09-20T12:06:07.095Z,10.60
2022-09-20T12:08:40.698Z,10.60
2022-09-20T12:11:13.662Z,10.60
2022-09-20T12:13:55.742Z,10.60
2022-09-20T12:16:43.081Z,10.70
2022-09-20T12:19:41.135Z,10.70
2022-09-20T12:22:32.400Z,10.60
2022-09-20T12:25:41.150Z,10.70
2022-09-20T12:28:19.025Z,10.70
2022-09-20T12:30:50.516Z,10.60
2022-09-20T12:33:25.777Z,10.70
2022-09-20T12:36:15.416Z,10.70
2022-09-20T12:39:07.827Z,10.70
2022-09-20T12:41:53.452Z,10.80
2022-09-20T12:44:38.117Z,10.70
2022-09-20T12:47:19.677Z,10.70
2022-09-20T12:50:11.599Z,10.70
2022-09-20T12:53:15.784Z,10.70
2022-09-20T12:55:53.893Z,10.70
2022-09-20T12:58:52.562Z,10.60
2022-09-20T13:01:39.093Z,10.60
2022-09-20T13:04:56.129Z,10.60
2022-09-20T13:07:55.111Z,10.60
2022-09-20T13:10:38.964Z,10.60
2022-09-20T13:13:39.512Z,10.60
2022-09-20T13:16:21.079Z,10.60
2022-09-20T13:18:56.004Z,10.60
2022-09-20T13:21:29.596Z,10.60
2022-09-20T13:24:01.036Z,10.60
2022-09-20T13:26:39.389Z,10.60
2022-09-20T13:29:12.899Z,10.60
2022-09-20T13:31:44.089Z,10.60
2022-09-20T13:34:26.035Z,10.60
2022-09-20T13:37:00.205Z,10.60
2022-09-20T13:39:39.000Z,10.70
2022-09-20T13:42:20.646Z,10.70
2022-09-20T13:44:52.471Z,10.70
2022-09-20T13:47:31.418Z,10.70
2022-09-20T13:50:13.448Z,10.70
2022-09-20T13:52:50.381Z,10.70
2022-09-20T13:55:31.216Z,10.70
2022-09-20T13:58:08.912Z,10.70
2022-09-20T14:00:48.536Z,10.70
2022-09-20T14:03:22.271Z,10.70
2022-09-20T14:05:54.743Z,10.70
2022-09-20T14:08:29.292Z,10.70
2022-09-20T14:11:11.254Z,10.80
2022-09-20T14:13:47.354Z,10.80
2022-09-20T14:16:21.178Z,10.90
2022-09-20T14:18:54.348Z,10.90
2022-09-20T14:21:28.094Z,11.00
2022-09-20T14:24:03.082Z,11.00
2022-09-20T14:26:38.286Z,11.10
2022-09-20T14:29:40.891Z,11.10
2022-09-20T14:32:29.695Z,11.20
2022-09-20T14:35:05.948Z,11.30
2022-09-20T14:37:39.524Z,11.30
2022-09-20T14:40:23.610Z,11.30
2022-09-20T14:42:58.085Z,11.40
2022-09-20T14:45:34.676Z,11.40
2022-09-20T14:48:11.173Z,11.50
2022-09-20T14:50:44.203Z,11.50
2022-09-20T14:53:32.775Z,11.60
2022-09-20T14:56:12.705Z,11.60
2022-09-20T14:59:09.402Z,11.60
2022-09-20T15:01:46.138Z,11.70
2022-09-20T15:04:24.340Z,11.70
2022-09-20T15:06:56.190Z,11.80
2022-09-20T15:09:27.315Z,11.90
2022-09-20T15:12:08.371Z,11.90
2022-09-20T15:14:42.433Z,12.10
2022-09-20T15:17:19.019Z,12.10
2022-09-20T15:19:50.459Z,12.20
2022-09-20T15:22:21.502Z,12.40
2022-09-20T15:24:53.005Z,12.50
2022-09-20T15:27:28.053Z,12.60
2022-09-20T15:29:59.432Z,12.80
2022-09-20T15:32:32.324Z,12.90
2022-09-20T15:35:03.356Z,13.00
2022-09-20T15:37:34.630Z,13.10
2022-09-20T15:40:06.900Z,13.20
2022-09-20T15:42:38.840Z,13.30
2022-09-20T15:45:12.523Z,13.40
2022-09-20T15:47:47.133Z,13.50
2022-09-20T15:50:18.121Z,13.60
2022-09-20T15:52:51.284Z,13.70
2022-09-20T15:55:23.439Z,13.80
2022-09-20T15:57:54.529Z,13.80
2022-09-20T16:00:25.636Z,13.90
2022-09-20T16:02:58.698Z,13.90
2022-09-20T16:05:29.941Z,14.00
2022-09-20T16:08:03.003Z,14.10
2022-09-20T16:10:34.361Z,14.10
2022-09-20T16:13:07.621Z,14.10
2022-09-20T16:15:39.457Z,14.20
2022-09-20T16:18:31.251Z,14.20
2022-09-20T16:21:10.828Z,14.30
2022-09-20T16:23:42.238Z,14.40
2022-09-20T16:26:13.816Z,14.40
2022-09-20T16:28:47.755Z,14.50
2022-09-20T16:31:40.816Z,14.50
2022-09-20T16:34:32.360Z,14.60
2022-09-20T16:37:05.084Z,14.70
2022-09-20T16:39:36.510Z,14.80
2022-09-20T16:42:09.977Z,14.90
2022-09-20T16:44:42.831Z,15.00
2022-09-20T16:47:17.299Z,15.10
2022-09-20T16:49:51.577Z,15.20
2022-09-20T16:52:22.938Z,15.30
2022-09-20T16:54:54.054Z,15.40
2022-09-20T16:57:24.947Z,15.50
2022-09-20T16:59:56.750Z,15.50
2022-09-20T17:02:28.184Z,15.60
2022-09-20T17:05:02.043Z,15.80
2022-09-20T17:07:34.490Z,15.90
2022-09-20T17:10:05.428Z,16.10
2022-09-20T17:12:42.835Z,16.20
2022-09-20T17:15:16.698Z,16.30
2022-09-20T17:17:48.103Z,16.40
2022-09-20T17:20:21.213Z,16.60
2022-09-20T17:22:52.712Z,16.70
2022-09-20T17:25:26.573Z,16.90
2022-09-20T17:27:59.136Z,16.90
2022-09-20T17:30:32.128Z,17.10
2022-09-20T17:33:04.194Z,17.10
2022-09-20T17:35:37.678Z,17.20
2022-09-20T17:38:08.716Z,17.30
2022-09-20T17:40:39.876Z,17.40
2022-09-20T17:43:12.075Z,17.50
2022-09-20T17:45:44.749Z,17.60
2022-09-20T17:48:15.780Z,17.70
2022-09-20T17:50:58.899Z,17.80
2022-09-20T17:53:29.999Z,17.90
2022-09-20T17:56:04.484Z,18.00
2022-09-20T17:58:38.659Z,18.20
2022-09-20T18:01:12.830Z,18.30
2022-09-20T18:03:47.178Z,18.50
2022-09-20T18:06:22.641Z,18.60
2022-09-20T18:08:55.156Z,18.70
2022-09-20T18:11:29.937Z,18.80
2022-09-20T18:14:01.125Z,18.90
2022-09-20T18:16:34.755Z,19.00
2022-09-20T18:19:06.656Z,19.10
2022-09-20T18:21:40.476Z,19.20
2022-09-20T18:24:13.129Z,19.30
2022-09-20T18:26:45.160Z,19.40
2022-09-20T18:29:19.340Z,19.40
2022-09-20T18:31:52.362Z,19.60
2022-09-20T18:34:25.114Z,19.60
2022-09-20T18:36:59.854Z,19.70
2022-09-20T18:39:33.925Z,19.80
2022-09-20T18:42:05.827Z,20.00
2022-09-20T18:44:37.229Z,20.00
2022-09-20T18:47:08.884Z,20.10
2022-09-20T18:49:42.208Z,20.20
2022-09-20T18:52:15.835Z,20.40
2022-09-20T18:54:47.119Z,20.50
2022-09-20T18:57:19.109Z,20.60
2022-09-20T18:59:55.238Z,20.60
2022-09-20T19:02:51.053Z,20.70
2022-09-20T19:05:29.229Z,20.80
2022-09-20T19:08:28.912Z,20.90
2022-09-20T19:11:04.412Z,20.90
2022-09-20T19:13:45.910Z,21.10
2022-09-20T19:16:31.624Z,21.20
2022-09-20T19:19:32.201Z,21.20
2022-09-20T19:22:11.672Z,21.30
2022-09-20T19:25:06.778Z,21.40
2022-09-20T19:27:38.441Z,21.50
2022-09-20T19:30:11.445Z,21.60
2022-09-20T19:32:43.341Z,21.60
2022-09-20T19:35:22.629Z,21.70
2022-09-20T19:38:06.126Z,21.80
2022-09-20T19:40:52.582Z,21.90
2022-09-20T19:43:39.795Z,22.00
2022-09-20T19:46:25.237Z,22.20
2022-09-20T19:49:06.762Z,22.20
2022-09-20T19:51:41.412Z,22.30
2022-09-20T19:54:15.645Z,22.40
2022-09-20T19:56:57.104Z,22.40
2022-09-20T19:59:31.242Z,22.60
2022-09-20T20:02:03.210Z,22.60
2022-09-20T20:04:34.714Z,22.70
2022-09-20T20:07:11.979Z,22.80
2022-09-20T20:09:49.419Z,23.00
2022-09-20T20:12:28.243Z,23.10
2022-09-20T20:15:11.825Z,23.00
2022-09-20T20:17:52.088Z,23.20
2022-09-20T20:20:31.807Z,23.30
2022-09-20T20:23:41.082Z,23.40
2022-09-20T20:26:15.819Z,23.50
2022-09-20T20:28:48.826Z,23.70
2022-09-20T20:31:19.737Z,23.80
2022-09-20T20:33:51.202Z,23.80
2022-09-20T20:36:22.361Z,24.00
2022-09-20T20:38:54.091Z,24.10
2022-09-20T20:41:25.924Z,24.20
2022-09-20T20:43:58.868Z,24.20
2022-09-20T20:46:30.006Z,24.20
2022-09-20T20:49:02.196Z,24.30
2022-09-20T20:51:36.585Z,24.40
2022-09-20T20:54:08.392Z,24.50
2022-09-20T20:56:40.064Z,24.60
2022-09-20T20:59:13.326Z,24.70
2022-09-20T21:01:45.720Z,24.80
2022-09-20T21:04:19.101Z,24.90
2022-09-20T21:06:51.328Z,25.00
2022-09-20T21:09:22.646Z,25.10
2022-09-20T21:11:53.578Z,25.30
2022-09-20T21:14:33.309Z,25.40
2022-09-20T21:17:04.545Z,25.50
2022-09-20T21:19:36.202Z,25.50
2022-09-20T21:22:07.535Z,25.50
2022-09-20T21:24:39.073Z,25.50
2022-09-20T21:27:10.145Z,25.50
2022-09-20T21:29:43.023Z,25.50
2022-09-20T21:32:15.232Z,25.60
2022-09-20T21:34:47.267Z,25.80
2022-09-20T21:37:18.307Z,25.90
2022-09-20T21:39:49.321Z,26.00
2022-09-20T21:42:20.172Z,26.00
2022-09-20T21:44:53.968Z,26.20
2022-09-20T21:47:25.182Z,26.50
2022-09-20T21:49:56.798Z,26.40
2022-09-20T21:52:28.809Z,26.30
2022-09-20T21:55:00.227Z,26.20
2022-09-20T21:57:31.824Z,26.20
2022-09-20T22:00:05.314Z,26.10
2022-09-20T22:02:36.501Z,26.30
2022-09-20T22:05:08.445Z,26.30
2022-09-20T22:07:39.473Z,26.30
2022-09-20T22:10:11.595Z,26.30
2022-09-20T22:12:42.079Z,26.50
2022-09-20T22:15:17.656Z,26.50
2022-09-20T22:17:48.666Z,26.70
2022-09-20T22:20:19.837Z,26.90
2022-09-20T22:22:51.975Z,27.00
2022-09-20T22:25:23.192Z,27.00
2022-09-20T22:27:55.088Z,27.10
2022-09-20T22:30:28.040Z,27.20
2022-09-20T22:32:58.865Z,27.20
2022-09-20T22:35:30.056Z,27.20
2022-09-20T22:38:02.328Z,27.20
2022-09-20T22:40:33.054Z,27.20
2022-09-20T22:43:05.313Z,27.20
2022-09-20T22:45:39.017Z,27.00
2022-09-20T22:48:10.100Z,27.10
2022-09-20T22:50:41.123Z,27.30
2022-09-20T22:53:12.364Z,27.60
2022-09-20T22:55:43.224Z,27.70
2022-09-20T22:58:14.265Z,27.60
2022-09-20T23:00:48.216Z,27.60
2022-09-20T23:03:19.329Z,27.80
2022-09-20T23:05:51.728Z,27.90
2022-09-20T23:08:23.616Z,27.70
2022-09-20T23:11:02.248Z,27.50
2022-09-20T23:13:33.639Z,27.30
2022-09-20T23:16:14.326Z,27.10
2022-09-20T23:18:48.653Z,27.10
2022-09-20T23:21:21.320Z,27.10
2022-09-20T23:23:56.851Z,26.80
2022-09-20T23:26:29.028Z,26.70
2022-09-20T23:29:01.921Z,26.60
2022-09-20T23:31:38.377Z,26.70
2022-09-20T23:34:10.814Z,26.70
2022-09-20T23:36:43.075Z,26.70
2022-09-20T23:39:15.427Z,26.80
2022-09-20T23:41:50.841Z,26.80
2022-09-20T23:44:22.476Z,26.60
2022-09-20T23:46:55.911Z,26.70
2022-09-20T23:49:27.002Z,26.60
2022-09-20T23:51:58.804Z,26.50
2022-09-20T23:54:29.781Z,26.50
2022-09-20T23:57:00.963Z,26.50
2022-09-20T23:59:32.990Z,26.60
